Bookmark and Share
Track history (hours):
 

Sagittarian

More information available from US FCC via Universal Licensing System and Coast Guard Vessel Documentation Center.

Last reported at 2014-Apr-22 17:21 UTC. Time now 2014-Apr-24 06:17 UTC.
Position N 37°46' W 122°23'.

Length 24 m; draft 3.7 m.

Type: Tug. MMSI: 366969510.

NotesDate/timePositionNaut miles runAvg speedWind from/ knotsBaromVisibWave heightAir tempDewpointWater temp
2014-Apr-22 17:21N 37°46' W 122°23'0 0.0
2014-Apr-22 09:33N 37°46' W 122°23'8 6.3
2014-Apr-22 08:19N 37°54' W 122°22'1 0.7
2014-Apr-22 07:26N 37°55' W 122°22'5 1.7
2014-Apr-22 04:33N 37°50' W 122°23'4 0.3
2014-Apr-21 17:05N 37°46' W 122°23'2 4.5
2014-Apr-21 16:33N 37°49' W 122°23'3 1.5
2014-Apr-21 14:14N 37°52' W 122°24'6 8.6
2014-Apr-21 13:33N 37°47' W 122°23'  
2014-Apr-17 23:16N 37°46' W 122°23'1 1.6
2014-Apr-17 22:33N 37°46' W 122°22'1 0.7
2014-Apr-17 21:33N 37°45' W 122°21'0 0.1
2014-Apr-17 20:33N 37°45' W 122°21'0 0.0
2014-Apr-17 19:33N 37°45' W 122°21'2 1.8
2014-Apr-17 18:33N 37°46' W 122°23'1 0.0
2014-Apr-16 02:33N 37°48' W 122°23'1210.3
2014-Apr-16 01:23N 37°60' W 122°25'910.9
2014-Apr-16 00:32N 38°04' W 122°14'4 2.3
2014-Apr-15 22:33N 38°02' W 122°09'4 0.1
2014-Apr-14 15:31N 38°04' W 122°13'13 3.2
2014-Apr-14 11:33N 37°54' W 122°24'2 1.9
2014-Apr-14 10:33N 37°55' W 122°22'0 0.4
2014-Apr-14 09:34N 37°54' W 122°22'8 7.6
2014-Apr-14 08:33N 37°47' W 122°23'8 0.8
2014-Apr-13 22:32N 37°55' W 122°25'0 0.2
2014-Apr-13 21:27N 37°55' W 122°25'0 0.0
2014-Apr-13 20:29N 37°55' W 122°25'0 0.0
2014-Apr-13 19:30N 37°55' W 122°25'4 4.0
2014-Apr-13 18:34N 37°52' W 122°24'5 0.6
2014-Apr-13 09:30N 37°46' W 122°23'6 6.1
2014-Apr-13 08:32N 37°52' W 122°24'3 2.7
2014-Apr-13 07:16N 37°55' W 122°26'6 8.7
2014-Apr-13 06:33N 37°50' W 122°24'3 3.1
2014-Apr-13 05:33N 37°46' W 122°23'  

Dump ship's entire track history

sailing weather and tide predictions

Sagittarian — WCY5210 — position and weather